Time;durP1;ratioP1;P1;durP2;ratioP2;P2;SDS_P1;SDS_P2;PMS_P1;PMS_P2;Temp;Humidity;BMP_temperature;BMP_pressure;BME280_temperature;BME280_humidity;BME280_pressure;Samples;Min_cycle;Max_cycle;Signal;HPM_P1;HPM_P2
2022/09/10 00:00:56;;;;;;;45.92;26.38;;;14.10;99.90;;;;;;5061337;28;20105;-80
2022/09/10 00:03:23;;;;;;;50.75;27.20;;;14.00;99.90;;;;;;5078897;28;20048;-79
2022/09/10 00:05:49;;;;;;;52.50;27.58;;;14.10;99.90;;;;;;5078750;28;20051;-79
2022/09/10 00:08:16;;;;;;;51.03;26.23;;;14.10;99.90;;;;;;5078719;28;20052;-79
2022/09/10 00:10:45;;;;;;;52.70;27.42;;;14.00;99.90;;;;;;5078722;28;20044;-80
2022/09/10 00:13:14;;;;;;;53.70;27.63;;;14.10;99.90;;;;;;5078695;28;20060;-79
2022/09/10 00:15:49;;;;;;;54.92;28.02;;;14.10;99.90;;;;;;5061627;28;20090;-80
2022/09/10 00:18:17;;;;;;;64.00;28.58;;;14.20;99.90;;;;;;5061257;28;20067;-79
2022/09/10 00:20:49;;;;;;;44.80;26.02;;;14.30;99.90;;;;;;5061206;28;20054;-81
2022/09/10 00:23:17;;;;;;;52.38;27.25;;;14.40;99.90;;;;;;5061160;28;20044;-80
2022/09/10 00:25:44;;;;;;;51.80;27.17;;;14.40;99.90;;;;;;5061719;28;20339;-80
2022/09/10 00:28:10;;;;;;;49.78;27.17;;;14.50;99.90;;;;;;5061039;28;20481;-79
2022/09/10 00:30:45;;;;;;;47.00;28.50;;;14.50;99.90;;;;;;5060944;28;20041;-79
2022/09/10 00:33:12;;;;;;;48.83;27.73;;;14.50;99.90;;;;;;5060860;28;20083;-79
2022/09/10 00:35:39;;;;;;;47.97;29.75;;;14.50;99.90;;;;;;5078530;28;20036;-80
2022/09/10 00:38:06;;;;;;;49.53;28.15;;;14.60;99.90;;;;;;5060813;28;20040;-80
2022/09/10 00:40:33;;;;;;;45.40;29.10;;;14.60;99.90;;;;;;5061037;28;20123;-79
2022/09/10 00:42:59;;;;;;;50.05;30.00;;;14.60;99.90;;;;;;5060670;28;20509;-80
2022/09/10 00:45:32;;;;;;;50.08;28.88;;;14.60;99.90;;;;;;5060898;28;20040;-78
2022/09/10 00:48:15;;;;;;;52.45;30.73;;;14.60;99.90;;;;;;5078200;28;20052;-80
2022/09/10 00:50:44;;;;;;;53.65;29.50;;;14.60;99.90;;;;;;5078414;28;20055;-80
2022/09/10 00:53:14;;;;;;;53.97;30.98;;;14.60;99.90;;;;;;5078351;28;20191;-79
2022/09/10 00:55:44;;;;;;;51.42;30.65;;;14.60;99.90;;;;;;5076138;28;20404;-80
2022/09/10 00:58:11;;;;;;;58.35;31.70;;;14.70;99.90;;;;;;5075302;28;20048;-81
2022/09/10 01:00:39;;;;;;;52.63;30.38;;;14.70;99.90;;;;;;5075817;28;20040;-79
2022/09/10 01:03:10;;;;;;;49.22;30.50;;;14.70;99.90;;;;;;5057484;28;20040;-80
2022/09/10 01:05:40;;;;;;;56.63;33.83;;;14.70;99.90;;;;;;5057535;28;20040;-81
2022/09/10 01:08:07;;;;;;;48.88;31.50;;;14.80;99.90;;;;;;5057373;28;20152;-80
2022/09/10 01:10:52;;;;;;;51.10;31.27;;;14.80;99.90;;;;;;5057246;28;20083;-81
2022/09/10 01:13:55;;;;;;;49.50;30.25;;;14.80;99.90;;;;;;5074924;28;20052;-80
2022/09/10 01:16:28;;;;;;;52.47;32.05;;;14.80;99.90;;;;;;5074854;28;20460;-80
2022/09/10 01:19:06;;;;;;;49.03;31.27;;;14.90;99.90;;;;;;5074674;28;20115;-80
2022/09/10 01:21:41;;;;;;;52.83;31.73;;;14.90;99.90;;;;;;5074694;28;20080;-81
2022/09/10 01:24:33;;;;;;;49.08;31.98;;;14.90;99.90;;;;;;5057300;28;20354;-80
2022/09/10 01:27:20;;;;;;;50.97;31.88;;;14.90;99.90;;;;;;5038544;28;20127;-80
2022/09/10 01:29:54;;;;;;;48.72;31.40;;;14.90;99.90;;;;;;5074565;28;20115;-80
2022/09/10 01:32:57;;;;;;;51.15;33.17;;;14.90;99.90;;;;;;5056882;28;20052;-79
2022/09/10 01:35:36;;;;;;;48.05;31.73;;;14.90;99.90;;;;;;5040446;28;20358;-81
2022/09/10 01:38:09;;;;;;;51.83;32.90;;;15.00;99.90;;;;;;5056897;28;20119;-80
2022/09/10 01:40:36;;;;;;;50.78;30.88;;;15.00;99.90;;;;;;5074411;28;20085;-80
2022/09/10 01:43:06;;;;;;;54.83;33.60;;;15.00;99.90;;;;;;5056850;28;20072;-79
2022/09/10 01:45:41;;;;;;;54.25;33.08;;;15.00;99.90;;;;;;5056606;28;20127;-80
2022/09/10 01:48:33;;;;;;;54.85;34.33;;;15.00;99.90;;;;;;5073876;28;20052;-81
2022/09/10 01:51:26;;;;;;;49.53;32.17;;;14.90;99.90;;;;;;5056515;28;20037;-79
2022/09/10 01:54:13;;;;;;;50.88;32.83;;;15.00;99.90;;;;;;5073870;28;20326;-80
2022/09/10 01:56:46;;;;;;;56.17;33.45;;;14.90;99.90;;;;;;5056379;28;20049;-80
2022/09/10 01:59:25;;;;;;;49.60;31.83;;;14.90;99.90;;;;;;5074061;28;20048;-79
2022/09/10 02:01:59;;;;;;;53.13;31.92;;;14.90;99.90;;;;;;5056562;28;20043;-78
2022/09/10 02:04:27;;;;;;;51.00;31.60;;;14.90;99.90;;;;;;5039913;28;20079;-82
2022/09/10 02:06:55;;;;;;;49.85;31.10;;;14.90;99.90;;;;;;5073270;28;20431;-78
2022/09/10 02:09:21;;;;;;;46.65;31.38;;;14.90;99.90;;;;;;5055601;28;20037;-81
2022/09/10 02:11:53;;;;;;;45.78;29.85;;;14.90;99.90;;;;;;5056258;28;20047;-79
2022/09/10 02:14:20;;;;;;;50.25;32.95;;;14.80;99.90;;;;;;5073734;28;20032;-80
2022/09/10 02:16:57;;;;;;;46.50;30.08;;;14.80;99.90;;;;;;5073745;28;20049;-80
2022/09/10 02:19:25;;;;;;;47.08;31.23;;;14.80;99.90;;;;;;5056119;28;20051;-80
2022/09/10 02:21:55;;;;;;;48.28;31.65;;;14.80;99.90;;;;;;5073301;28;20095;-81
2022/09/10 02:24:21;;;;;;;53.47;32.60;;;14.80;99.90;;;;;;5055995;28;20040;-81
2022/09/10 02:26:48;;;;;;;52.95;32.20;;;14.80;99.90;;;;;;5073577;28;20051;-81
2022/09/10 02:29:15;;;;;;;50.97;32.17;;;14.80;99.90;;;;;;5055968;28;20040;-80
2022/09/10 02:31:42;;;;;;;54.55;33.25;;;14.80;99.90;;;;;;5073334;28;20055;-79
2022/09/10 02:34:09;;;;;;;54.83;34.38;;;14.80;99.90;;;;;;5055824;28;20469;-81
2022/09/10 02:36:35;;;;;;;51.25;31.63;;;14.80;99.90;;;;;;5055921;28;20409;-82
2022/09/10 02:39:03;;;;;;;52.92;32.05;;;14.80;99.90;;;;;;5073335;28;20397;-81
2022/09/10 02:41:31;;;;;;;52.47;33.38;;;14.80;99.90;;;;;;5055729;28;20051;-79
2022/09/10 02:43:57;;;;;;;50.38;31.67;;;14.80;99.90;;;;;;5073187;28;20048;-80
2022/09/10 02:46:23;;;;;;;49.85;32.20;;;14.70;99.90;;;;;;5073127;28;20044;-80
2022/09/10 02:48:49;;;;;;;51.80;30.92;;;14.70;99.90;;;;;;5072708;28;20053;-79
2022/09/10 02:51:14;;;;;;;57.35;34.45;;;14.70;99.90;;;;;;5055570;28;20151;-79
2022/09/10 02:53:40;;;;;;;47.33;30.77;;;14.70;99.90;;;;;;5038646;28;20040;-80
2022/09/10 02:56:06;;;;;;;52.83;32.03;;;14.70;99.90;;;;;;5072969;28;20087;-80
2022/09/10 02:58:33;;;;;;;51.22;32.78;;;14.60;99.90;;;;;;5072936;28;20115;-80
2022/09/10 03:01:13;;;;;;;51.55;31.63;;;14.60;99.90;;;;;;5055399;28;20048;-79
2022/09/10 03:03:39;;;;;;;55.85;31.45;;;14.60;99.90;;;;;;5072773;28;20048;-81
2022/09/10 03:06:06;;;;;;;49.45;30.98;;;14.60;99.90;;;;;;5055412;28;20040;-79
2022/09/10 03:08:32;;;;;;;51.58;32.03;;;14.60;99.90;;;;;;5072865;28;20040;-81
2022/09/10 03:10:58;;;;;;;49.47;31.35;;;14.60;99.90;;;;;;5072807;28;20040;-79
2022/09/10 03:13:29;;;;;;;51.78;32.70;;;14.60;99.90;;;;;;5054842;28;20040;-79
2022/09/10 03:15:57;;;;;;;54.78;31.25;;;14.60;99.90;;;;;;5072321;28;20069;-79
2022/09/10 03:18:23;;;;;;;48.05;29.40;;;14.60;99.90;;;;;;5072572;28;20070;-80
2022/09/10 03:20:49;;;;;;;55.80;32.03;;;14.50;99.90;;;;;;5072442;28;20434;-80
2022/09/10 03:23:16;;;;;;;49.65;30.83;;;14.50;99.90;;;;;;5055032;28;20040;-79
2022/09/10 03:25:42;;;;;;;50.00;30.92;;;14.50;99.90;;;;;;5054958;28;20131;-79
2022/09/10 03:28:09;;;;;;;52.40;31.70;;;14.50;99.90;;;;;;5072322;28;20177;-81
2022/09/10 03:30:36;;;;;;;50.15;31.10;;;14.50;99.90;;;;;;5072478;28;20036;-82
2022/09/10 03:33:02;;;;;;;48.13;31.27;;;14.50;99.90;;;;;;5054534;28;20044;-79
2022/09/10 03:35:28;;;;;;;52.05;31.23;;;14.50;99.90;;;;;;5072382;28;20140;-80
2022/09/10 03:37:54;;;;;;;48.20;29.70;;;14.50;99.90;;;;;;5054980;28;20040;-79
2022/09/10 03:40:20;;;;;;;46.97;30.00;;;14.50;99.90;;;;;;5072502;28;20493;-80
2022/09/10 03:42:46;;;;;;;56.67;32.08;;;14.50;99.90;;;;;;5072432;28;20095;-81
2022/09/10 03:45:12;;;;;;;48.08;30.20;;;14.50;99.90;;;;;;5054660;28;20041;-80
2022/09/10 03:47:39;;;;;;;53.13;29.38;;;14.50;99.90;;;;;;5071997;28;20060;-79
2022/09/10 03:50:06;;;;;;;54.75;31.83;;;14.50;99.90;;;;;;5054536;28;20127;-80
2022/09/10 03:52:32;;;;;;;50.88;31.70;;;14.50;99.90;;;;;;5054475;28;20040;-80
2022/09/10 03:54:57;;;;;;;53.75;31.15;;;14.50;99.90;;;;;;5072178;28;20047;-79
2022/09/10 03:57:25;;;;;;;47.75;29.95;;;14.50;99.90;;;;;;5071762;28;20044;-81
2022/09/10 03:59:51;;;;;;;55.50;29.63;;;14.50;99.90;;;;;;5072976;28;20363;-81
2022/09/10 04:02:17;;;;;;;51.88;28.83;;;14.50;99.90;;;;;;5072242;28;20091;-80
2022/09/10 04:04:43;;;;;;;53.22;30.77;;;14.50;99.90;;;;;;5054756;28;20072;-79
2022/09/10 04:07:09;;;;;;;50.10;30.05;;;14.50;99.90;;;;;;5054645;28;20446;-79
2022/09/10 04:09:35;;;;;;;47.55;28.95;;;14.60;99.90;;;;;;5054540;28;20037;-81
2022/09/10 04:12:02;;;;;;;50.20;29.77;;;14.60;99.90;;;;;;5071671;28;20459;-80
2022/09/10 04:14:28;;;;;;;49.15;29.17;;;14.60;99.90;;;;;;5071960;28;20051;-80
2022/09/10 04:16:57;;;;;;;42.28;27.52;;;14.60;99.90;;;;;;5072136;28;20119;-80
2022/09/10 04:19:23;;;;;;;50.45;29.50;;;14.60;99.90;;;;;;5054258;28;20124;-79
2022/09/10 04:21:51;;;;;;;48.75;28.30;;;14.70;99.90;;;;;;5054204;28;20495;-80
2022/09/10 04:24:17;;;;;;;45.78;28.42;;;14.60;99.90;;;;;;5054127;28;20442;-79
2022/09/10 04:26:43;;;;;;;47.50;28.98;;;14.70;99.90;;;;;;5054374;28;20067;-79
2022/09/10 04:29:09;;;;;;;40.28;26.20;;;14.70;99.90;;;;;;5054303;28;20044;-80
2022/09/10 04:31:35;;;;;;;45.10;26.98;;;14.70;99.90;;;;;;5055853;28;20135;-80
2022/09/10 04:34:01;;;;;;;50.97;29.48;;;14.70;99.90;;;;;;5075679;28;20126;-80
2022/09/10 04:36:27;;;;;;;42.42;26.98;;;14.70;99.90;;;;;;5075753;28;20036;-79
2022/09/10 04:38:52;;;;;;;47.75;28.63;;;14.80;99.90;;;;;;5075371;28;20079;-79
2022/09/10 04:41:18;;;;;;;40.35;26.65;;;14.80;99.90;;;;;;5058029;28;20114;-80
2022/09/10 04:43:45;;;;;;;51.35;29.92;;;14.80;99.90;;;;;;5075464;28;20174;-80
2022/09/10 04:46:11;;;;;;;44.85;26.80;;;14.80;99.90;;;;;;5058007;28;20048;-79
2022/09/10 04:48:36;;;;;;;42.33;28.25;;;14.80;99.90;;;;;;5057432;28;20469;-79
2022/09/10 04:51:03;;;;;;;47.75;26.85;;;14.80;99.90;;;;;;5057983;28;20040;-80
2022/09/10 04:53:30;;;;;;;46.80;27.17;;;14.80;99.90;;;;;;5075321;28;20097;-80
2022/09/10 04:55:56;;;;;;;41.33;26.10;;;14.80;99.90;;;;;;5057855;28;20075;-79
2022/09/10 04:58:22;;;;;;;47.00;26.58;;;14.80;99.90;;;;;;5057466;28;20453;-80
2022/09/10 05:00:48;;;;;;;42.47;26.52;;;14.80;99.90;;;;;;5075172;28;20047;-79
2022/09/10 05:03:13;;;;;;;43.15;26.10;;;14.80;99.90;;;;;;5057739;28;20361;-80
2022/09/10 05:05:41;;;;;;;43.55;27.42;;;14.80;99.90;;;;;;5075285;28;20357;-79
2022/09/10 05:08:08;;;;;;;39.58;25.48;;;14.80;99.90;;;;;;5075164;28;20041;-80
2022/09/10 05:10:35;;;;;;;40.90;25.13;;;14.80;99.90;;;;;;5057622;28;20080;-80
2022/09/10 05:13:01;;;;;;;43.85;25.67;;;14.80;99.90;;;;;;5074905;28;20048;-80
2022/09/10 05:15:27;;;;;;;45.72;26.00;;;14.80;99.90;;;;;;5057284;28;20377;-80
2022/09/10 05:17:53;;;;;;;42.03;24.25;;;14.80;99.90;;;;;;5057425;28;20047;-81
2022/09/10 05:20:19;;;;;;;40.05;23.65;;;14.80;99.90;;;;;;5057396;28;20446;-80
2022/09/10 05:22:45;;;;;;;39.22;25.45;;;14.80;99.90;;;;;;5074914;28;20342;-80
2022/09/10 05:25:10;;;;;;;40.25;23.30;;;14.80;99.90;;;;;;5074698;28;20082;-79
2022/09/10 05:27:36;;;;;;;40.53;24.38;;;14.80;99.90;;;;;;5040607;28;20044;-79
2022/09/10 05:30:03;;;;;;;39.90;25.45;;;14.80;99.90;;;;;;5074802;28;20178;-79
2022/09/10 05:32:31;;;;;;;41.75;24.95;;;14.80;99.90;;;;;;5074717;28;20048;-80
2022/09/10 05:34:57;;;;;;;36.15;23.10;;;14.90;99.90;;;;;;5074627;28;20048;-80
2022/09/10 05:37:23;;;;;;;41.92;24.50;;;14.80;99.90;;;;;;5074618;28;20564;-80
2022/09/10 05:39:49;;;;;;;38.65;23.13;;;14.90;99.90;;;;;;5074430;28;20131;-80
2022/09/10 05:42:15;;;;;;;38.53;23.65;;;14.90;99.90;;;;;;5074357;28;20054;-79
2022/09/10 05:44:40;;;;;;;44.13;24.27;;;14.90;99.90;;;;;;5074487;28;20337;-80
2022/09/10 05:47:07;;;;;;;44.33;25.08;;;14.90;99.90;;;;;;5056752;28;20037;-79
2022/09/10 05:49:33;;;;;;;39.92;24.25;;;15.00;99.90;;;;;;5056672;28;20084;-79
2022/09/10 05:51:59;;;;;;;43.05;24.30;;;14.90;99.90;;;;;;5056669;28;20044;-80
2022/09/10 05:54:25;;;;;;;41.20;25.20;;;15.00;99.90;;;;;;5056743;28;20060;-79
2022/09/10 05:56:50;;;;;;;46.08;23.13;;;15.00;99.90;;;;;;5056740;28;20055;-79
2022/09/10 05:59:16;;;;;;;54.83;25.67;;;15.00;99.90;;;;;;5056646;28;20036;-79
2022/09/10 06:01:42;;;;;;;36.22;23.08;;;15.00;99.90;;;;;;5056403;28;20132;-81
2022/09/10 06:04:10;;;;;;;38.45;24.38;;;15.00;99.90;;;;;;5074158;28;20044;-81
2022/09/10 06:06:36;;;;;;;37.60;23.77;;;15.10;99.90;;;;;;5057085;28;20532;-79
2022/09/10 06:09:02;;;;;;;41.53;24.92;;;15.10;99.90;;;;;;5048248;28;20041;-79
2022/09/10 06:11:28;;;;;;;36.35;22.75;;;15.10;99.90;;;;;;5069527;28;20485;-79
2022/09/10 06:13:54;;;;;;;35.83;22.92;;;15.20;99.90;;;;;;5057826;28;20032;-80
2022/09/10 06:16:19;;;;;;;36.25;22.92;;;15.20;99.90;;;;;;5039647;28;20052;-80
2022/09/10 06:18:45;;;;;;;37.40;22.92;;;15.20;99.90;;;;;;5068535;28;20048;-79
2022/09/10 06:21:14;;;;;;;34.42;22.63;;;15.30;99.90;;;;;;5075689;28;20465;-80
2022/09/10 06:23:40;;;;;;;34.58;22.08;;;15.30;99.90;;;;;;5093705;28;20074;-78
2022/09/10 06:26:09;;;;;;;34.58;22.10;;;15.30;99.90;;;;;;5093577;28;20044;-81
2022/09/10 06:28:35;;;;;;;40.95;22.85;;;15.40;99.90;;;;;;5076016;28;20122;-81
2022/09/10 06:31:04;;;;;;;34.55;22.58;;;15.40;99.90;;;;;;5076025;28;20040;-79
2022/09/10 06:33:31;;;;;;;38.22;24.45;;;15.40;99.90;;;;;;5075640;28;20044;-80
2022/09/10 06:35:59;;;;;;;34.17;21.92;;;15.50;99.90;;;;;;5093542;28;20134;-82
2022/09/10 06:38:28;;;;;;;31.65;22.90;;;15.50;99.90;;;;;;5075618;28;20074;-81
2022/09/10 06:40:56;;;;;;;33.10;21.13;;;15.50;99.90;;;;;;5093761;28;20044;-81
2022/09/10 06:43:24;;;;;;;33.88;21.75;;;15.50;99.90;;;;;;5093223;28;20043;-81
2022/09/10 06:45:54;;;;;;;32.35;22.23;;;15.50;99.90;;;;;;5075511;28;20120;-80
2022/09/10 06:48:21;;;;;;;35.33;23.27;;;15.60;99.90;;;;;;5093137;28;20059;-80
2022/09/10 06:50:55;;;;;;;32.40;21.33;;;15.60;99.90;;;;;;5093320;28;20048;-80
2022/09/10 06:53:23;;;;;;;34.50;22.10;;;15.60;99.90;;;;;;5092743;28;20105;-81
2022/09/10 06:55:49;;;;;;;30.42;20.80;;;15.70;99.90;;;;;;5074367;28;20040;-81
2022/09/10 06:58:18;;;;;;;28.67;20.25;;;15.70;99.90;;;;;;5075508;28;20040;-81
2022/09/10 07:00:48;;;;;;;33.42;21.58;;;15.80;99.90;;;;;;5073519;28;20051;-82
2022/09/10 07:03:15;;;;;;;;;;;15.80;99.90;;;;;;5072254;28;20102;-80
2022/09/10 07:05:41;;;;;;;31.38;20.27;;;15.90;99.90;;;;;;5075425;28;19935;-80
2022/09/10 07:08:11;;;;;;;36.67;19.90;;;15.90;99.90;;;;;;5093200;28;20109;-78
2022/09/10 07:10:37;;;;;;;28.27;20.07;;;15.90;99.90;;;;;;5075348;28;20097;-81
2022/09/10 07:13:04;;;;;;;32.30;21.35;;;15.80;99.90;;;;;;5058305;28;20055;-81
2022/09/10 07:15:30;;;;;;;30.33;20.38;;;15.80;99.90;;;;;;5074286;28;20475;-79
2022/09/10 07:17:56;;;;;;;30.33;20.55;;;15.80;99.90;;;;;;5075221;28;20047;-80
2022/09/10 07:20:22;;;;;;;32.67;20.63;;;15.80;99.90;;;;;;5092872;28;20043;-80
2022/09/10 07:22:52;;;;;;;31.02;21.83;;;15.90;99.90;;;;;;5075936;28;20145;-79
2022/09/10 07:25:18;;;;;;;26.65;20.13;;;16.00;99.90;;;;;;5075187;28;20044;-79
2022/09/10 07:27:44;;;;;;;30.33;20.60;;;16.10;99.90;;;;;;5074789;28;20086;-83
2022/09/10 07:30:11;;;;;;;29.02;20.75;;;16.10;99.90;;;;;;5093667;28;20047;-83
2022/09/10 07:32:37;;;;;;;27.00;20.25;;;16.20;99.90;;;;;;5092611;28;20039;-82
2022/09/10 07:35:03;;;;;;;29.13;20.73;;;16.30;99.90;;;;;;5074985;28;20044;-81
2022/09/10 07:37:38;;;;;;;30.38;19.80;;;16.40;99.90;;;;;;5074992;28;20066;-80
2022/09/10 07:40:05;;;;;;;25.05;17.33;;;16.50;99.90;;;;;;5092761;28;20036;-84
2022/09/10 07:42:31;;;;;;;31.63;19.65;;;16.60;99.90;;;;;;5075705;28;20127;-80
2022/09/10 07:44:57;;;;;;;26.02;18.90;;;16.60;99.90;;;;;;5093300;28;20131;-80
2022/09/10 07:47:24;;;;;;;25.15;17.55;;;16.70;99.90;;;;;;5057991;28;20056;-81
2022/09/10 07:49:51;;;;;;;29.20;20.67;;;16.70;99.90;;;;;;5092338;28;20052;-79
2022/09/10 07:52:18;;;;;;;26.05;19.05;;;16.70;99.90;;;;;;5098721;28;20294;-79
2022/09/10 07:54:44;;;;;;;25.55;18.45;;;16.80;99.90;;;;;;5075757;28;20105;-79
2022/09/10 07:57:10;;;;;;;28.13;18.52;;;16.80;99.90;;;;;;5092544;28;20048;-80
2022/09/10 07:59:36;;;;;;;27.27;19.33;;;16.80;99.90;;;;;;5074803;28;20126;-79
2022/09/10 08:02:02;;;;;;;24.42;17.95;;;16.80;99.90;;;;;;5084940;28;20043;-80
2022/09/10 08:04:31;;;;;;;26.48;18.95;;;16.90;99.90;;;;;;5074693;28;20055;-79
2022/09/10 08:06:57;;;;;;;24.90;18.48;;;16.90;99.90;;;;;;5078757;28;20052;-80
2022/09/10 08:09:24;;;;;;;26.30;19.10;;;17.00;99.90;;;;;;5095662;28;20108;-82
2022/09/10 08:11:50;;;;;;;25.52;16.90;;;17.00;99.90;;;;;;5096508;28;20044;-80
2022/09/10 08:14:16;;;;;;;27.45;17.65;;;17.00;99.90;;;;;;5096256;28;20043;-79
2022/09/10 08:16:42;;;;;;;25.33;18.98;;;17.00;99.90;;;;;;5096151;28;20098;-82
2022/09/10 08:19:09;;;;;;;24.20;17.48;;;17.10;99.90;;;;;;5078471;28;20039;-80
2022/09/10 08:21:35;;;;;;;22.95;17.30;;;17.00;99.90;;;;;;5078537;28;20063;-80
2022/09/10 08:24:02;;;;;;;23.08;17.60;;;17.00;99.90;;;;;;5096358;28;20100;-80
2022/09/10 08:26:28;;;;;;;25.48;17.67;;;17.00;99.90;;;;;;5078434;28;20184;-79
2022/09/10 08:28:56;;;;;;;26.27;18.13;;;17.00;99.90;;;;;;5096118;28;20115;-80
2022/09/10 08:31:25;;;;;;;24.10;18.02;;;17.00;99.90;;;;;;5096012;28;20043;-80
2022/09/10 08:33:53;;;;;;;24.80;18.02;;;17.10;99.90;;;;;;5095843;28;20052;-81
2022/09/10 08:36:23;;;;;;;23.48;17.55;;;17.20;99.90;;;;;;5078364;28;20035;-79
2022/09/10 08:38:50;;;;;;;21.00;16.90;;;17.30;99.90;;;;;;5061429;28;20059;-80
2022/09/10 08:41:39;;;;;;;24.23;18.52;;;17.40;99.90;;;;;;5077958;28;20072;-82
2022/09/10 08:44:23;;;;;;;21.60;16.20;;;17.60;99.90;;;;;;5078071;28;20036;-80
2022/09/10 08:46:54;;;;;;;20.70;15.63;;;17.80;99.90;;;;;;5095797;28;20472;-80
2022/09/10 08:49:33;;;;;;;21.65;15.88;;;17.90;99.90;;;;;;5095629;28;20113;-79
2022/09/10 08:52:09;;;;;;;16.83;14.43;;;18.00;99.90;;;;;;5095486;28;20044;-79
2022/09/10 08:54:45;;;;;;;21.23;15.00;;;18.00;99.90;;;;;;5095675;28;20126;-80
2022/09/10 08:57:25;;;;;;;24.02;16.00;;;18.20;99.90;;;;;;5077882;28;20339;-80
2022/09/10 08:59:55;;;;;;;19.38;14.75;;;18.30;99.90;;;;;;5065600;28;20052;-78
2022/09/10 09:02:23;;;;;;;21.65;15.95;;;18.40;99.90;;;;;;5074994;28;20063;-80
2022/09/10 09:04:58;;;;;;;17.75;14.00;;;18.50;99.90;;;;;;5057561;28;20120;-81
2022/09/10 09:07:27;;;;;;;19.20;14.52;;;18.60;99.90;;;;;;5041089;28;20108;-78
2022/09/10 09:09:53;;;;;;;18.75;14.05;;;18.70;99.90;;;;;;5075049;28;20044;-79
2022/09/10 09:12:37;;;;;;;18.20;13.68;;;18.70;99.90;;;;;;5057468;28;20049;-80
2022/09/10 09:15:46;;;;;;;16.05;13.13;;;18.80;99.90;;;;;;5074502;28;20056;-79
2022/09/10 09:18:32;;;;;;;17.50;13.07;;;19.00;99.90;;;;;;5056562;28;20055;-79
2022/09/10 09:21:14;;;;;;;18.27;12.18;;;19.20;99.90;;;;;;5053270;28;20095;-78
2022/09/10 09:23:50;;;;;;;16.58;12.18;;;19.30;99.90;;;;;;5074734;28;20342;-81
2022/09/10 09:26:18;;;;;;;14.48;9.85;;;19.40;99.90;;;;;;5056641;28;20091;-81
2022/09/10 09:28:59;;;;;;;10.35;7.50;;;19.50;99.90;;;;;;5057146;28;20048;-82
2022/09/10 09:31:28;;;;;;;12.98;9.55;;;19.50;99.90;;;;;;5074660;28;20059;-81
2022/09/10 09:34:05;;;;;;;11.15;9.57;;;19.40;99.90;;;;;;5074429;28;20044;-80
2022/09/10 09:36:42;;;;;;;16.58;11.80;;;19.30;99.90;;;;;;5074701;28;20345;-80
2022/09/10 09:39:20;;;;;;;13.45;10.13;;;19.20;99.90;;;;;;5056722;28;20044;-80
2022/09/10 09:41:51;;;;;;;14.40;10.77;;;19.20;99.90;;;;;;5074255;28;20040;-79
2022/09/10 09:44:25;;;;;;;12.73;9.90;;;19.20;99.90;;;;;;5074245;28;20056;-80
2022/09/10 09:46:51;;;;;;;15.23;10.38;;;19.10;99.90;;;;;;5056720;28;20590;-81
2022/09/10 09:49:17;;;;;;;13.35;10.07;;;19.20;99.90;;;;;;5073593;28;20056;-78
2022/09/10 09:51:45;;;;;;;13.63;10.75;;;19.30;99.90;;;;;;5056675;28;20048;-81
2022/09/10 09:54:17;;;;;;;13.98;11.00;;;19.30;99.90;;;;;;5074127;28;20056;-80
2022/09/10 09:56:50;;;;;;;11.27;9.30;;;19.30;99.90;;;;;;5056787;28;20156;-79
2022/09/10 09:59:28;;;;;;;13.57;9.88;;;19.40;99.90;;;;;;5074050;28;20446;-79
2022/09/10 10:01:59;;;;;;;17.95;12.10;;;19.40;99.90;;;;;;5056734;28;20051;-77
2022/09/10 10:04:29;;;;;;;13.95;10.35;;;19.50;99.90;;;;;;5074228;28;20048;-80
2022/09/10 10:07:00;;;;;;;12.35;9.00;;;19.50;99.90;;;;;;5073939;28;20056;-78
2022/09/10 10:09:33;;;;;;;12.13;10.38;;;19.60;99.90;;;;;;5056215;28;20040;-79
2022/09/10 10:12:04;;;;;;;13.50;9.68;;;19.60;99.90;;;;;;5073978;28;20334;-79
2022/09/10 10:14:30;;;;;;;11.55;9.15;;;19.50;99.90;;;;;;5056431;28;20355;-78
2022/09/10 10:16:57;;;;;;;9.32;8.32;;;19.40;99.90;;;;;;5073822;28;20101;-77
2022/09/10 10:19:33;;;;;;;11.02;9.25;;;19.40;99.90;;;;;;5056306;28;20083;-78
2022/09/10 10:22:15;;;;;;;13.43;9.93;;;19.50;99.90;;;;;;5073707;28;20048;-78
2022/09/10 10:24:42;;;;;;;14.05;10.05;;;19.60;99.90;;;;;;5056175;28;20118;-79
2022/09/10 10:27:26;;;;;;;13.98;9.95;;;19.90;99.90;;;;;;5056237;28;20052;-78
2022/09/10 10:29:59;;;;;;;13.77;10.85;;;20.20;99.90;;;;;;5072526;28;20076;-79
2022/09/10 10:32:33;;;;;;;13.50;10.52;;;20.40;99.90;;;;;;5073352;28;20051;-78
2022/09/10 10:35:18;;;;;;;14.25;10.40;;;20.40;99.90;;;;;;5039546;28;20052;-78
2022/09/10 10:38:21;;;;;;;14.88;10.55;;;20.50;99.90;;;;;;5073400;28;20139;-78
2022/09/10 10:41:22;;;;;;;12.85;9.02;;;20.80;99.90;;;;;;5073304;28;20052;-78
2022/09/10 10:44:11;;;;;;;12.68;8.98;;;21.60;99.90;;;;;;5035916;28;20048;-79
2022/09/10 10:46:47;;;;;;;13.32;9.80;;;22.50;99.90;;;;;;5073200;28;20044;-80
2022/09/10 10:49:22;;;;;;;11.20;9.38;;;23.20;99.90;;;;;;5073084;28;20086;-80
2022/09/10 10:52:09;;;;;;;10.38;7.57;;;23.60;99.90;;;;;;5073265;28;20067;-80
2022/09/10 10:55:16;;;;;;;9.48;7.85;;;24.10;99.90;;;;;;5044943;28;20052;-79
2022/09/10 10:57:42;;;;;;;11.90;7.95;;;24.40;99.90;;;;;;4994766;28;20038;-80
2022/09/10 11:00:19;;;;;;;9.20;7.55;;;24.00;99.90;;;;;;5062941;28;20044;-80
2022/09/10 11:03:14;;;;;;;13.10;8.20;;;23.90;99.90;;;;;;5055100;28;20040;-81
2022/09/10 11:06:14;;;;;;;12.15;7.60;;;24.00;99.90;;;;;;5055230;28;20377;-88
2022/09/10 11:08:49;;;;;;;10.48;7.50;;;23.30;99.90;;;;;;5011502;28;20053;-78
2022/09/10 11:11:21;;;;;;;10.25;7.68;;;22.70;99.90;;;;;;4995126;28;20048;-80
2022/09/10 11:14:00;;;;;;;10.70;7.32;;;22.50;99.90;;;;;;5050867;28;20061;-79
2022/09/10 11:16:50;;;;;;;11.13;6.38;;;22.40;99.90;;;;;;5072921;28;20040;-80
2022/09/10 11:19:30;;;;;;;7.78;5.13;;;22.10;99.90;;;;;;5072729;28;20036;-80
2022/09/10 11:22:03;;;;;;;7.22;5.13;;;21.80;99.90;;;;;;5072578;28;20076;-79
2022/09/10 11:24:45;;;;;;;7.85;5.35;;;21.70;99.90;;;;;;5055295;28;20180;-80
2022/09/10 11:27:31;;;;;;;6.95;4.82;;;21.50;99.90;;;;;;5072103;28;20063;-79
2022/09/10 11:30:04;;;;;;;9.77;5.38;;;21.40;99.90;;;;;;5069954;28;20135;-80
2022/09/10 11:32:42;;;;;;;6.10;4.90;;;21.10;99.90;;;;;;5072355;28;20051;-80
2022/09/10 11:35:23;;;;;;;7.30;4.50;;;21.00;99.90;;;;;;5073063;28;20131;-81
2022/09/10 11:37:57;;;;;;;6.93;4.60;;;21.00;99.90;;;;;;5076383;28;20123;-79
2022/09/10 11:41:04;;;;;;;8.30;5.18;;;21.00;99.90;;;;;;5071894;28;20052;-79
2022/09/10 11:43:40;;;;;;;8.77;4.93;;;21.00;99.90;;;;;;5068320;28;20210;-81
2022/09/10 11:46:12;;;;;;;9.20;5.60;;;21.10;99.90;;;;;;5070543;28;20055;-79
2022/09/10 11:48:56;;;;;;;8.20;5.93;;;21.20;99.90;;;;;;5053926;28;20052;-78
2022/09/10 11:51:38;;;;;;;7.95;5.65;;;21.30;99.90;;;;;;5072026;28;20040;-80
2022/09/10 11:54:08;;;;;;;6.07;4.82;;;21.60;99.90;;;;;;5072084;28;20140;-80
2022/09/10 11:57:08;;;;;;;7.63;5.53;;;21.80;99.90;;;;;;5054687;28;20044;-78
2022/09/10 12:00:18;;;;;;;6.63;4.95;;;22.20;99.90;;;;;;5072169;28;20047;-80
2022/09/10 12:03:12;;;;;;;8.07;4.07;;;22.40;99.90;;;;;;5048451;28;20481;-79
2022/09/10 12:05:50;;;;;;;5.78;3.83;;;22.50;99.90;;;;;;5054701;28;20056;-79
2022/09/10 12:08:37;;;;;;;6.18;3.72;;;22.50;99.90;;;;;;5054515;28;20475;-78
2022/09/10 12:11:28;;;;;;;7.25;5.25;;;22.40;99.90;;;;;;5054618;28;20056;-80
2022/09/10 12:13:56;;;;;;;8.68;6.00;;;22.40;99.90;;;;;;5071871;28;20125;-78
2022/09/10 12:16:42;;;;;;;10.02;5.03;;;22.30;99.90;;;;;;5072903;28;20128;-79
2022/09/10 12:19:22;;;;;;;12.77;6.40;;;22.30;99.90;;;;;;5074439;28;20040;-79
2022/09/10 12:21:52;;;;;;;6.85;5.05;;;22.40;99.90;;;;;;5054380;28;20098;-79
2022/09/10 12:24:34;;;;;;;7.22;4.97;;;22.50;99.90;;;;;;5054463;28;20076;-80
2022/09/10 12:27:02;;;;;;;7.32;4.00;;;22.70;99.90;;;;;;5071859;28;20408;-79
2022/09/10 12:29:41;;;;;;;6.93;4.95;;;22.70;99.90;;;;;;5054233;28;20338;-79
2022/09/10 12:32:07;;;;;;;7.93;5.47;;;22.70;99.90;;;;;;5054297;28;20040;-79
2022/09/10 12:34:35;;;;;;;8.15;5.32;;;22.70;99.90;;;;;;5066306;28;20413;-81
2022/09/10 12:37:01;;;;;;;7.45;4.60;;;22.70;99.90;;;;;;5071779;28;20048;-80
2022/09/10 12:39:28;;;;;;;10.63;5.72;;;22.60;99.90;;;;;;5071713;28;20555;-79
2022/09/10 12:41:56;;;;;;;8.20;4.90;;;22.60;99.90;;;;;;5054217;28;20124;-79
2022/09/10 12:44:34;;;;;;;7.85;4.32;;;22.40;99.90;;;;;;5071912;28;20048;-77
2022/09/10 12:47:27;;;;;;;9.00;4.55;;;22.30;99.90;;;;;;5071787;28;20059;-78
2022/09/10 12:50:24;;;;;;;9.15;5.47;;;22.20;99.90;;;;;;5071795;28;20090;-79
2022/09/10 12:52:50;;;;;;;12.23;6.35;;;22.20;99.90;;;;;;5065811;28;20057;-79